McGregor, North Dakota
Current Conditions -  °F | °C
As of 3:35 PM on Monday 24 Nov 2014 (Local Time) from KD60 Reporting Station
Overcast Overcast  
Wind Chill:   Ceiling: 5000
Heat Index: 23°   Visibility: 10mi
Dew Point: 19°   Wind: 17mph
Humidity: 86%   Direction: 280°W
Pressure: 29.97"   Gusts: NA
Location:  48.6°N, 102.93°W
Report Text: KD60 242135Z AUTO 28015KT 10SM OVC050 M05/M07 A2997 RMK AO2
Loading
Personal Weather Stations






























Interactive Weather Map New forecast layout! Learn more

10-Day Weather Forecast

Advertisements
Track Severe Weather on mobile